Portada
METAR-TAF:

METAR-TAF

Aeropuertos :

Foggia, Italia

latitud: 41-32N, longitud: 015-43E, altitud: 57 m

Observación

El informe se hizo hace 52 minutos, a las 00:55 UTC
Viento 6 kt del oeste
Temperatura 15°C
Humedad 88%
Presión 1015 hPa
Visibilidad 10 km o más
Escasas nubes a una altura de 6000 ft

METAR: LIBA 010055Z 27006KT 9999 FEW060 15/13 Q1015 RMK OVC OVC090 VIS MIN 9999 WIND THR11 24006KT WIND THR29 /////KT BLU

Hora: 03:47 (01:47 UTC)

Pronóstico

El informe se hizo hace 2 horas y 47 minutos, a las 23:00 UTC
Pronóstico válido del 01 a las 00 UTC al 01 a las 09 UTC
Viento 12 kt del oeste-noroeste
Visibilidad 10 km o más
Escasas nubes a una altura de 3000 ft
Nubes dispersas a una altura de 6000 ft

TAF: LIBA 312300Z 0100/0109 29012KT 9999 FEW030 SCT060

Observaciones y pronósticos meteorológicos de más de 4000 aeropuertos (mensajes METAR y TAF).

Los puntos amarillos y rojos representan las estaciones disponibles.

Ponga el ratón en el punto deseado para ver el nombre de la estación.

Haga clic para ver las observaciones y los pronósticos meteorológicos.

Para cambiar el mapa : haga clic en los botones verdes con una cruz de color negro para hacer un zoom, en el botón verde con un guión para alejar o en las flechas verdes para mapas adyacentes.


METAR-TAF: